TFM - Tactical Decision Aid
ID: Runway Winds: CIG/VIS Threshold:

KAIA - Alliance Muni, NE, US

Updated at: 1538 UTC 27 Nov 2021
Latest TAF at: 1144 UTC 27 Nov 2021

TAF Board

Time1453Z 27/16Z 27/17Z 27/18Z 27/19Z 27/20Z 27/21Z 27/22Z 27/23Z 28/00Z 28/01Z 28/02Z 28/03Z 28/04Z>>
Type OBS PRVL PRVL PRVL PRVL PRVL PRVL PRVL PRVL PRVL PRVL PRVL PRVL PRVL
VIS 10 >6 >6 >6 >6 >6 >6 >6 >6 >6 >6 >6 >6 >6
CIG -- -- 200 200 200 200 200 200 -- -- -- -- -- --
Cover CLR SCT BKN BKN BKN BKN BKN BKN SCT SCT SCT SCT SCT SCT
FltCat VFR VFR VFR VFR VFR VFR VFR VFR VFR VFR VFR VFR VFR VFR
WX -- -- -- -- -- -- -- -- -- -- -- -- -- --
WDir VRB 300 330 330 330 330 330 330 350 350 350 350 210 210
WSpd 4 10 15 15 15 15 15 15 9 9 9 9 7 7
WGst -- -- 23 23 23 23 23 23 -- -- -- -- -- --
WSHgt -- -- -- -- -- -- -- -- -- -- -- -- -- --
WSDir -- -- -- -- -- -- -- -- -- -- -- -- -- --
WSSpd -- -- -- -- -- -- -- -- -- -- -- -- -- --

TDA Impact Legend

  None Marginal Slight Moderate High
Visibility (sm) >5 3≤X≤5 2≤X<3 0.5≤X<2 <0.5
Ceiling (100 ft) >30 10≤X≤30 6≤X<10 2≤X<6 <2
Wind Speed (kt) <15 15≤X<25 25≤X<30 ≥30
Wind Gust (kt) <15 15≤X<25 25≤X<35 ≥35
Weather No Wx Reported VCTS -TS,-FZRA TS,FZRA +TS,+FZRA
TAF
KAIA 271144Z 2712/2812 30010KT P6SM SCT200
  FM271700 33015G23KT P6SM BKN200
  FM272300 35009KT P6SM SCT200
  FM280300 21007KT P6SM SCT200


METAR
KAIA 271453Z AUTO VRB04KT 10SM CLR 01/M03 A3015 RMK AO2 PRESRR SLP230 T00111028 53019
KAIA 271353Z AUTO 27010KT 10SM CLR M01/M04 A3012 RMK AO2 SLP220 T10111039
KAIA 271253Z AUTO 26008KT 10SM CLR M01/M04 A3010 RMK AO2 SLP205 T10111044

Radar Display
Forecast Discussion